NCAR-RAP Real-Time Weather Data

Output produced by METARs form (12 May 2021  11:57 UTC)
found at http://weather.rap.ucar.edu/surface/
 
KLGA 121151Z 31012G19KT 10SM FEW100 FEW250 10/M01 A3016 RMK AO2 SLP212 T01001006 10111 20089 51017
KLGA 121051Z 31010KT 10SM FEW100 FEW250 09/M01 A3015 RMK AO2 SLP209 T00941011
KLGA 120951Z 30013KT 10SM FEW150 FEW250 09/M02 A3012 RMK AO2 SLP199 T00891017
KLGA 120851Z 31015KT 10SM SCT250 09/M01 A3011 RMK AO2 SLP195 T00941006 53002
KLGA 120751Z 30019G24KT 10SM FEW210 SCT250 10/M01 A3009 RMK AO2 PK WND 30028/0701 SLP190 T01001011
KLGA 120651Z 31019G27KT 10SM SCT200 BKN250 11/M01 A3010 RMK AO2 PK WND 30027/0647 SLP191 T01061011
KLGA 120551Z 32020G26KT 10SM BKN210 BKN250 11/M02 A3010 RMK AO2 PK WND 32026/0549 SLP193 T01111017 10156 20111 51013
KLGA 120451Z COR 33020KT 10SM SCT210 SCT250 12/M03 A3010 RMK AO2 PK WND 32026/0420 SLP192 T01221028 402000111
KLGA 120351Z 33012KT 10SM SCT080 SCT095 BKN110 BKN250 13/M02 A3009 RMK AO2 SLP189 T01281017
KLGA 120251Z 31010KT 10SM SCT080 BKN095 OVC110 14/00 A3007 RMK AO2 SLP181 T01390000 51020
KLGA 120151Z 31014G23KT 10SM SCT075 BKN090 BKN250 14/01 A3005 RMK AO2 SLP176 T01440011
KLGA 120051Z 29010KT 10SM SCT065 SCT110 SCT250 15/00 A3003 RMK AO2 SLP167 T01500000
KLGA 112351Z 31016KT 10SM SCT085 SCT110 SCT200 16/01 A3001 RMK AO2 SLP161 T01560011 10200 20156 53013
KLGA 112251Z 29014G26KT 10SM SCT075 BKN095 17/M01 A2999 RMK AO2 PK WND 30027/2235 SLP155 T01721006
KLGA 112151Z 31011KT 10SM SCT070 BKN085 OVC110 17/00 A2998 RMK AO2 SLP153 VIRGA SW-W T01720000
KLGA 112051Z 31016G23KT 10SM FEW080 BKN095 BKN120 18/M01 A2997 RMK AO2 PK WND 29028/2003 SLP148 T01831006 55005